createdAt,value
2022-12-04T00:00:34.736Z,100825.31
2022-12-04T00:03:02.056Z,100823.63
2022-12-04T00:05:29.413Z,100821.94
2022-12-04T00:07:56.977Z,100829.00
2022-12-04T00:10:24.308Z,100829.16
2022-12-04T00:12:51.628Z,100826.47
2022-12-04T00:15:26.830Z,100827.31
2022-12-04T00:17:54.495Z,100826.47
2022-12-04T00:20:23.031Z,100829.16
2022-12-04T00:22:50.412Z,100824.78
2022-12-04T00:25:17.694Z,100819.50
2022-12-04T00:27:45.024Z,100810.47
2022-12-04T00:30:12.999Z,100807.06
2022-12-04T00:32:40.271Z,100801.72
2022-12-04T00:35:08.115Z,100804.38
2022-12-04T00:37:35.413Z,100793.50
2022-12-04T00:40:03.081Z,100788.28
2022-12-04T00:42:30.436Z,100793.66
2022-12-04T00:44:57.775Z,100790.97
2022-12-04T00:47:25.076Z,100789.13
2022-12-04T00:49:52.539Z,100795.50
2022-12-04T00:52:19.924Z,100792.81
2022-12-04T00:54:47.290Z,100785.59
2022-12-04T00:57:14.564Z,100777.53
2022-12-04T00:59:41.997Z,100794.66
2022-12-04T01:02:09.269Z,100771.31
2022-12-04T01:04:36.542Z,100791.97
2022-12-04T01:07:05.343Z,100776.69
2022-12-04T01:09:33.144Z,100764.25
2022-12-04T01:12:00.419Z,100763.25
2022-12-04T01:14:27.887Z,100757.88
2022-12-04T01:16:55.231Z,100749.94
2022-12-04T01:19:22.787Z,100755.31
2022-12-04T01:21:50.138Z,100752.63
2022-12-04T01:24:17.434Z,100749.94
2022-12-04T01:26:44.692Z,100752.63
2022-12-04T01:29:11.990Z,100746.41
2022-12-04T01:31:39.479Z,100749.94
2022-12-04T01:34:07.229Z,100747.41
2022-12-04T01:36:34.451Z,100737.50
2022-12-04T01:39:01.787Z,100728.59
2022-12-04T01:41:31.032Z,100724.94
2022-12-04T01:44:11.358Z,100736.66
2022-12-04T01:46:39.951Z,100730.44
2022-12-04T01:49:12.413Z,100713.50
2022-12-04T01:51:44.012Z,100713.50
2022-12-04T01:54:18.564Z,100698.22
2022-12-04T01:57:09.192Z,100682.09
2022-12-04T01:59:44.332Z,100691.00
2022-12-04T02:02:14.862Z,100690.16
2022-12-04T02:04:43.783Z,100685.78
2022-12-04T02:07:11.784Z,100693.84
2022-12-04T02:09:40.894Z,100693.84
2022-12-04T02:12:22.443Z,100679.56
2022-12-04T02:15:00.244Z,100686.75
2022-12-04T02:17:44.197Z,100689.44
2022-12-04T02:20:20.539Z,100684.06
2022-12-04T02:22:50.660Z,100687.63
2022-12-04T02:25:48.587Z,100685.06
2022-12-04T02:28:25.379Z,100676.00
2022-12-04T02:30:57.987Z,100671.63
2022-12-04T02:33:31.682Z,100662.56
2022-12-04T02:36:11.430Z,100672.47
2022-12-04T02:38:55.490Z,100655.53
2022-12-04T02:41:34.345Z,100661.72
2022-12-04T02:44:31.537Z,100655.53
2022-12-04T02:47:04.930Z,100651.13
2022-12-04T02:49:37.931Z,100659.19
2022-12-04T02:52:10.249Z,100653.81
2022-12-04T02:54:42.905Z,100647.47
2022-12-04T02:57:17.531Z,100637.72
2022-12-04T02:59:48.013Z,100631.50
2022-12-04T03:02:38.790Z,100627.81
2022-12-04T03:05:13.073Z,100620.75
2022-12-04T03:07:47.546Z,100625.28
2022-12-04T03:10:30.455Z,100634.19
2022-12-04T03:13:03.416Z,100622.59
2022-12-04T03:15:37.505Z,100614.53
2022-12-04T03:18:11.308Z,100613.66
2022-12-04T03:20:39.166Z,100626.97
2022-12-04T03:23:14.568Z,100616.22
2022-12-04T03:26:19.408Z,100615.38
2022-12-04T03:28:56.102Z,100610.00
2022-12-04T03:31:34.063Z,100612.69
2022-12-04T03:34:04.944Z,100610.00
2022-12-04T03:36:37.857Z,100610.88
2022-12-04T03:39:31.228Z,100593.06
2022-12-04T03:42:13.949Z,100609.16
2022-12-04T03:44:46.337Z,100592.19
2022-12-04T03:47:21.347Z,100601.13
2022-12-04T03:49:56.250Z,100608.28
2022-12-04T03:52:29.330Z,100632.47
2022-12-04T03:55:11.160Z,100642.31
2022-12-04T03:57:43.647Z,100655.75
2022-12-04T04:00:14.966Z,100641.47
2022-12-04T04:02:57.502Z,100632.47
2022-12-04T04:05:27.105Z,100633.44
2022-12-04T04:08:26.484Z,100607.41
2022-12-04T04:10:59.226Z,100629.78
2022-12-04T04:14:11.447Z,100623.53
2022-12-04T04:17:02.089Z,100617.31
2022-12-04T04:19:52.759Z,100628.06
2022-12-04T04:22:41.171Z,100632.59
2022-12-04T04:25:13.343Z,100627.22
2022-12-04T04:27:40.632Z,100629.91
2022-12-04T04:30:09.530Z,100625.38
2022-12-04T04:32:36.730Z,100623.53
2022-12-04T04:35:10.257Z,100612.78
2022-12-04T04:38:14.657Z,100608.41
2022-12-04T04:40:59.454Z,100609.25
2022-12-04T04:43:35.930Z,100610.25
2022-12-04T04:46:11.564Z,100621.84
2022-12-04T04:48:43.290Z,100624.69
2022-12-04T04:51:11.644Z,100617.47
2022-12-04T04:53:44.753Z,100621.84
2022-12-04T04:56:12.330Z,100616.63
2022-12-04T04:58:39.950Z,100609.41
2022-12-04T05:01:19.214Z,100604.88
2022-12-04T05:03:47.049Z,100605.72
2022-12-04T05:06:14.718Z,100597.81
2022-12-04T05:08:42.149Z,100595.00
2022-12-04T05:11:13.978Z,100589.63
2022-12-04T05:13:42.104Z,100589.63
2022-12-04T05:16:14.390Z,100578.03
2022-12-04T05:19:01.279Z,100575.34
2022-12-04T05:21:28.653Z,100573.50
2022-12-04T05:23:56.006Z,100576.19
2022-12-04T05:26:23.639Z,100570.13
2022-12-04T05:28:51.070Z,100563.88
2022-12-04T05:31:18.621Z,100576.34
2022-12-04T05:33:45.910Z,100594.28
2022-12-04T05:36:13.584Z,100590.63
2022-12-04T05:38:41.160Z,100593.41
2022-12-04T05:41:08.530Z,100582.69
2022-12-04T05:43:36.262Z,100565.72
2022-12-04T05:46:06.106Z,100550.44
2022-12-04T05:48:34.882Z,100552.28
2022-12-04T05:51:09.750Z,100576.47
2022-12-04T05:53:37.815Z,100586.25
2022-12-04T05:56:06.328Z,100591.59
2022-12-04T05:58:37.931Z,100592.56
2022-12-04T06:01:13.769Z,100600.50
2022-12-04T06:03:41.106Z,100600.63
2022-12-04T06:06:21.438Z,100605.03
2022-12-04T06:08:55.430Z,100621.16
2022-12-04T06:11:33.098Z,100627.47
2022-12-04T06:14:02.393Z,100643.59
2022-12-04T06:16:33.411Z,100631.16
2022-12-04T06:19:03.785Z,100627.47
2022-12-04T06:21:32.758Z,100627.47
2022-12-04T06:24:00.070Z,100629.31
2022-12-04T06:26:28.074Z,100621.25
2022-12-04T06:28:57.543Z,100625.78
2022-12-04T06:31:26.460Z,100624.09
2022-12-04T06:33:55.271Z,100622.25
2022-12-04T06:36:23.528Z,100628.47
2022-12-04T06:38:51.809Z,100622.25
2022-12-04T06:41:20.945Z,100631.16
2022-12-04T06:43:48.914Z,100641.06
2022-12-04T06:46:25.199Z,100640.22
2022-12-04T06:48:54.384Z,100650.94
2022-12-04T06:51:36.592Z,100653.63
2022-12-04T06:54:04.290Z,100649.25
2022-12-04T06:56:33.215Z,100660.84
2022-12-04T06:59:03.044Z,100644.84
2022-12-04T07:01:32.871Z,100640.31
2022-12-04T07:04:03.412Z,100643.88
2022-12-04T07:06:36.163Z,100650.22
2022-12-04T07:09:14.174Z,100661.97
2022-12-04T07:11:42.900Z,100662.81
2022-12-04T07:14:11.660Z,100674.38
2022-12-04T07:16:41.532Z,100668.16
2022-12-04T07:19:11.292Z,100669.03
2022-12-04T07:21:38.725Z,100680.59
2022-12-04T07:24:06.411Z,100676.22
2022-12-04T07:26:34.030Z,100677.91
2022-12-04T07:29:01.428Z,100678.06
2022-12-04T07:31:30.194Z,100689.53
2022-12-04T07:33:58.092Z,100689.66
2022-12-04T07:36:26.666Z,100686.84
2022-12-04T07:38:56.369Z,100677.06
2022-12-04T07:41:24.137Z,100684.16
2022-12-04T07:43:51.493Z,100683.44
2022-12-04T07:46:22.439Z,100695.88
2022-12-04T07:48:49.802Z,100706.59
2022-12-04T07:51:20.062Z,100703.06
2022-12-04T07:53:48.103Z,100704.91
2022-12-04T07:56:15.620Z,100704.91
2022-12-04T07:58:43.377Z,100714.66
2022-12-04T08:01:15.604Z,100716.50
2022-12-04T08:03:48.031Z,100718.19
2022-12-04T08:06:18.579Z,100721.88
2022-12-04T08:08:46.952Z,100722.72
2022-12-04T08:11:17.380Z,100720.19
2022-12-04T08:13:45.751Z,100727.25
2022-12-04T08:16:14.134Z,100736.16
2022-12-04T08:18:46.721Z,100737.97
2022-12-04T08:21:22.693Z,100733.47
2022-12-04T08:23:52.549Z,100745.44
2022-12-04T08:26:22.126Z,100742.72
2022-12-04T08:28:49.712Z,100747.56
2022-12-04T08:31:19.985Z,100741.41
2022-12-04T08:33:49.784Z,100742.72
2022-12-04T08:36:20.110Z,100738.16
2022-12-04T08:38:48.561Z,100742.53
2022-12-04T08:41:18.913Z,100737.97
2022-12-04T08:43:46.234Z,100743.56
2022-12-04T08:46:16.973Z,100745.94
2022-12-04T08:48:46.570Z,100751.16
2022-12-04T08:51:26.220Z,100757.72
2022-12-04T08:53:58.992Z,100758.91
2022-12-04T08:56:27.343Z,100757.44
2022-12-04T08:58:56.541Z,100763.97
2022-12-04T09:01:25.701Z,100764.44
2022-12-04T09:03:53.158Z,100760.41
2022-12-04T09:06:21.420Z,100766.34
2022-12-04T09:08:53.281Z,100762.44
2022-12-04T09:11:24.106Z,100771.06
2022-12-04T09:13:52.443Z,100776.16
2022-12-04T09:16:22.496Z,100784.94
2022-12-04T09:18:50.354Z,100795.41
2022-12-04T09:21:19.341Z,100793.44
2022-12-04T09:23:46.949Z,100799.53
2022-12-04T09:26:26.565Z,100795.72
2022-12-04T09:28:55.267Z,100792.91
2022-12-04T09:31:24.286Z,100797.16
2022-12-04T09:33:52.459Z,100799.84
2022-12-04T09:36:20.343Z,100801.56
2022-12-04T09:38:50.505Z,100802.53
2022-12-04T09:41:36.167Z,100803.50
2022-12-04T09:44:27.778Z,100804.50
2022-12-04T09:47:04.893Z,100804.75
2022-12-04T09:49:42.114Z,100804.06
2022-12-04T09:52:23.911Z,100802.22
2022-12-04T09:54:53.440Z,100801.22
2022-12-04T09:57:38.256Z,100809.97
2022-12-04T10:00:10.646Z,100826.81
2022-12-04T10:02:40.525Z,100810.56
2022-12-04T10:05:17.651Z,100805.78
2022-12-04T10:07:59.128Z,100809.31
2022-12-04T10:10:40.089Z,100803.69
2022-12-04T10:13:42.640Z,100802.72
2022-12-04T10:16:37.565Z,100804.44
2022-12-04T10:19:25.412Z,100802.59
2022-12-04T10:22:13.883Z,100810.50
2022-12-04T10:24:49.233Z,100812.19
2022-12-04T10:27:22.669Z,100820.25
2022-12-04T10:30:02.307Z,100821.97
2022-12-04T10:32:33.097Z,100819.28
2022-12-04T10:35:19.334Z,100816.47
2022-12-04T10:37:51.776Z,100823.53
2022-12-04T10:40:25.991Z,100825.22
2022-12-04T10:43:39.360Z,100819.00
2022-12-04T10:46:30.183Z,100818.91
2022-12-04T10:49:05.091Z,100816.31
2022-12-04T10:51:43.569Z,100817.16
2022-12-04T10:54:33.223Z,100817.16
2022-12-04T10:57:10.054Z,100807.44
2022-12-04T10:59:48.130Z,100813.63
2022-12-04T11:02:22.791Z,100823.41
2022-12-04T11:05:02.069Z,100820.84
2022-12-04T11:07:45.378Z,100825.38
2022-12-04T11:10:22.519Z,100828.91
2022-12-04T11:13:02.828Z,100832.44
2022-12-04T11:15:30.572Z,100829.88
2022-12-04T11:18:09.161Z,100830.75
2022-12-04T11:20:36.661Z,100828.91
2022-12-04T11:23:05.272Z,100832.56
2022-12-04T11:25:44.794Z,100828.06
2022-12-04T11:28:33.787Z,100825.22
2022-12-04T11:31:07.459Z,100817.31
2022-12-04T11:33:44.791Z,100823.53
2022-12-04T11:36:34.406Z,100830.75
2022-12-04T11:39:17.582Z,100828.06
2022-12-04T11:41:45.007Z,100822.69
2022-12-04T11:44:33.288Z,100818.16
2022-12-04T11:47:03.988Z,100814.63
2022-12-04T11:49:32.798Z,100807.44
2022-12-04T11:52:39.935Z,100813.63
2022-12-04T11:55:12.634Z,100827.06
2022-12-04T11:57:42.836Z,100827.06
2022-12-04T12:00:20.747Z,100829.75
2022-12-04T12:03:10.903Z,100825.38
2022-12-04T12:06:06.549Z,100824.38
2022-12-04T12:08:58.596Z,100825.22
2022-12-04T12:11:43.051Z,100835.13
2022-12-04T12:14:21.258Z,100839.63
2022-12-04T12:17:01.873Z,100852.06
2022-12-04T12:20:06.753Z,100843.16
2022-12-04T12:22:54.335Z,100840.47
2022-12-04T12:25:35.996Z,100826.22
2022-12-04T12:28:25.479Z,100833.28
2022-12-04T12:31:05.939Z,100832.44
2022-12-04T12:34:11.344Z,100830.59
2022-12-04T12:36:46.607Z,100837.81
2022-12-04T12:39:24.188Z,100829.75
2022-12-04T12:41:59.079Z,100837.81
2022-12-04T12:44:52.793Z,100838.66
2022-12-04T12:47:25.867Z,100840.47
2022-12-04T12:49:57.661Z,100840.47
2022-12-04T12:52:43.156Z,100843.16
2022-12-04T12:55:19.084Z,100835.97
2022-12-04T12:58:26.938Z,100839.63
2022-12-04T13:01:03.202Z,100836.94
2022-12-04T13:03:47.200Z,100859.28
2022-12-04T13:06:28.225Z,100853.91
2022-12-04T13:09:37.620Z,100856.59
2022-12-04T13:12:14.956Z,100869.06
2022-12-04T13:14:47.513Z,100863.69
2022-12-04T13:17:37.568Z,100863.69
2022-12-04T13:20:10.379Z,100866.47
2022-12-04T13:22:40.413Z,100868.19
2022-12-04T13:25:47.377Z,100867.31
2022-12-04T13:28:23.282Z,100878.91
2022-12-04T13:31:29.654Z,100893.22
2022-12-04T13:34:14.794Z,100886.97
2022-12-04T13:36:53.788Z,100889.66
2022-12-04T13:40:11.650Z,100899.53
2022-12-04T13:42:39.308Z,100902.22
2022-12-04T13:45:24.720Z,100903.06
2022-12-04T13:48:03.820Z,100906.75
2022-12-04T13:50:35.060Z,100910.28
2022-12-04T13:53:02.432Z,100907.75
2022-12-04T13:55:39.827Z,100909.44
2022-12-04T13:58:13.035Z,100921.00
2022-12-04T14:00:44.076Z,100915.66
2022-12-04T14:03:34.414Z,100912.97
2022-12-04T14:06:28.717Z,100916.63
2022-12-04T14:09:00.519Z,100915.66
2022-12-04T14:11:29.021Z,100916.63
2022-12-04T14:14:02.278Z,100918.34
2022-12-04T14:16:40.066Z,100928.22
2022-12-04T14:19:08.766Z,100926.38
2022-12-04T14:21:47.602Z,100937.13
2022-12-04T14:24:28.155Z,100932.75
2022-12-04T14:27:11.340Z,100938.13
2022-12-04T14:29:39.535Z,100952.38
2022-12-04T14:32:13.828Z,100964.97
2022-12-04T14:34:41.319Z,100958.75
2022-12-04T14:37:21.251Z,100958.75
2022-12-04T14:39:50.556Z,100959.59
2022-12-04T14:42:24.968Z,100959.59
2022-12-04T14:44:56.170Z,100970.19
2022-12-04T14:47:38.776Z,100963.25
2022-12-04T14:50:21.201Z,100973.00
2022-12-04T14:52:53.177Z,100971.31
2022-12-04T14:55:29.148Z,100978.38
2022-12-04T14:58:30.008Z,100981.06
2022-12-04T15:01:00.257Z,100989.13
2022-12-04T15:03:31.391Z,100989.13
2022-12-04T15:06:13.875Z,100988.28
2022-12-04T15:08:50.435Z,100981.22
2022-12-04T15:11:38.668Z,100992.66
2022-12-04T15:14:16.410Z,100983.75
2022-12-04T15:16:43.799Z,100983.75
2022-12-04T15:19:18.828Z,100993.63
2022-12-04T15:21:46.136Z,101003.53
2022-12-04T15:24:24.212Z,100987.41
2022-12-04T15:26:55.436Z,100993.63
2022-12-04T15:29:27.326Z,100999.16
2022-12-04T15:31:58.545Z,100992.78
2022-12-04T15:34:43.930Z,100998.16
2022-12-04T15:37:25.707Z,100993.78
2022-12-04T15:39:54.256Z,100993.78
2022-12-04T15:42:21.870Z,101007.19
2022-12-04T15:44:55.687Z,101019.63
2022-12-04T15:47:25.655Z,101008.91
2022-12-04T15:49:53.087Z,101017.94
2022-12-04T15:52:23.039Z,101016.94
2022-12-04T15:54:56.796Z,101018.78
2022-12-04T15:57:36.899Z,101030.38
2022-12-04T16:00:27.290Z,101034.91
2022-12-04T16:02:55.396Z,101034.03
2022-12-04T16:05:22.567Z,101034.03
2022-12-04T16:07:51.383Z,101042.09
2022-12-04T16:10:27.702Z,101040.25
2022-12-04T16:12:58.678Z,101039.41
2022-12-04T16:15:53.553Z,101043.06
2022-12-04T16:18:20.864Z,101039.41
2022-12-04T16:20:48.156Z,101040.38
2022-12-04T16:23:16.561Z,101044.78
2022-12-04T16:25:43.897Z,101045.75
2022-12-04T16:28:11.203Z,101051.09
2022-12-04T16:30:38.465Z,101058.22
2022-12-04T16:33:05.714Z,101068.06
2022-12-04T16:35:33.021Z,101061.00
2022-12-04T16:38:00.300Z,101064.53
2022-12-04T16:40:27.550Z,101067.22
2022-12-04T16:42:55.243Z,101065.38
2022-12-04T16:45:22.559Z,101071.72
2022-12-04T16:47:50.016Z,101069.91
2022-12-04T16:50:17.341Z,101069.06
2022-12-04T16:52:44.689Z,101075.41
2022-12-04T16:55:36.590Z,101084.31
2022-12-04T16:58:05.345Z,101095.03
2022-12-04T17:00:32.649Z,101084.31
2022-12-04T17:03:04.084Z,101091.50
2022-12-04T17:05:35.703Z,101096.03
2022-12-04T17:08:03.063Z,101100.56
2022-12-04T17:10:30.371Z,101107.75
2022-12-04T17:12:57.704Z,101115.66
2022-12-04T17:15:25.032Z,101107.63
2022-12-04T17:17:52.312Z,101113.97
2022-12-04T17:20:20.912Z,101117.50
2022-12-04T17:22:48.818Z,101126.41
2022-12-04T17:25:17.008Z,101128.25
2022-12-04T17:27:44.885Z,101124.72
2022-12-04T17:30:13.006Z,101123.72
2022-12-04T17:32:40.457Z,101116.66
2022-12-04T17:35:09.474Z,101120.19
2022-12-04T17:37:38.619Z,101115.81
2022-12-04T17:40:07.391Z,101117.50
2022-12-04T17:42:34.716Z,101107.75
2022-12-04T17:45:03.783Z,101120.19
2022-12-04T17:47:31.521Z,101113.97
2022-12-04T17:49:58.777Z,101115.81
2022-12-04T17:52:28.246Z,101127.50
2022-12-04T17:54:55.862Z,101115.66
2022-12-04T17:57:23.419Z,101119.34
2022-12-04T17:59:51.407Z,101110.44
2022-12-04T18:02:18.768Z,101103.34
2022-12-04T18:04:46.377Z,101100.66
2022-12-04T18:07:13.719Z,101113.13
2022-12-04T18:09:41.114Z,101119.44
2022-12-04T18:12:08.504Z,101132.88
2022-12-04T18:14:37.216Z,101131.03
2022-12-04T18:17:04.626Z,101122.13
2022-12-04T18:19:32.392Z,101122.97
2022-12-04T18:21:59.872Z,101116.75
2022-12-04T18:24:27.428Z,101111.41
2022-12-04T18:26:54.792Z,101122.13
2022-12-04T18:29:25.009Z,101111.41
2022-12-04T18:31:52.750Z,101113.22
2022-12-04T18:34:20.859Z,101119.44
2022-12-04T18:36:48.984Z,101129.22
2022-12-04T18:39:22.178Z,101134.59
2022-12-04T18:41:50.236Z,101143.38
2022-12-04T18:44:17.820Z,101141.66
2022-12-04T18:46:45.678Z,101131.78
2022-12-04T18:49:13.067Z,101136.28
2022-12-04T18:51:49.746Z,101138.84
2022-12-04T18:54:20.596Z,101139.69
2022-12-04T18:56:48.115Z,101140.69
2022-12-04T18:59:26.666Z,101143.22
2022-12-04T19:01:54.119Z,101145.06
2022-12-04T19:04:23.596Z,101148.59
2022-12-04T19:06:53.449Z,101158.47
2022-12-04T19:09:47.055Z,101164.72
2022-12-04T19:12:12.559Z,101165.59
2022-12-04T19:14:40.135Z,101155.69
2022-12-04T19:17:07.688Z,101165.44
2022-12-04T19:19:35.127Z,101164.59
2022-12-04T19:22:02.581Z,101164.59
2022-12-04T19:24:29.962Z,101172.53
2022-12-04T19:26:57.313Z,101170.69
2022-12-04T19:29:24.576Z,101183.00
2022-12-04T19:31:57.599Z,101186.56
2022-12-04T19:34:26.873Z,101190.09
2022-12-04T19:36:54.821Z,101208.78
2022-12-04T19:39:22.500Z,101215.00
2022-12-04T19:41:49.892Z,101208.63
2022-12-04T19:44:47.204Z,101206.81
2022-12-04T19:47:04.715Z,101220.97
2022-12-04T19:49:33.488Z,101224.38
2022-12-04T19:52:00.849Z,101227.06
2022-12-04T19:54:29.913Z,101223.38
2022-12-04T19:56:57.219Z,101224.13
2022-12-04T19:59:24.429Z,101224.13
2022-12-04T20:01:51.803Z,101216.94
2022-12-04T20:04:19.219Z,101212.41
2022-12-04T20:06:47.122Z,101211.44
2022-12-04T20:09:20.501Z,101213.16
2022-12-04T20:11:48.444Z,101193.38
2022-12-04T20:14:15.805Z,101189.00
2022-12-04T20:16:43.221Z,101191.53
2022-12-04T20:19:15.550Z,101201.28
2022-12-04T20:21:43.769Z,101203.97
2022-12-04T20:24:14.652Z,101227.16
2022-12-04T20:26:45.937Z,101230.72
2022-12-04T20:29:19.227Z,101227.06
2022-12-04T20:31:47.073Z,101232.44
2022-12-04T20:34:16.878Z,101240.34
2022-12-04T20:36:46.280Z,101238.53
2022-12-04T20:39:15.144Z,101221.47
2022-12-04T20:41:42.862Z,101208.06
2022-12-04T20:44:14.335Z,101221.47
2022-12-04T20:46:42.804Z,101241.97
2022-12-04T20:49:21.207Z,101242.84
2022-12-04T20:51:49.930Z,101243.69
2022-12-04T20:54:19.790Z,101238.22
2022-12-04T20:56:49.036Z,101232.84
2022-12-04T20:59:18.922Z,101254.31
2022-12-04T21:01:46.617Z,101255.03
2022-12-04T21:04:13.977Z,101250.66
2022-12-04T21:06:42.212Z,101258.56
2022-12-04T21:09:16.792Z,101246.97
2022-12-04T21:11:47.606Z,101246.00
2022-12-04T21:14:40.799Z,101229.03
2022-12-04T21:17:11.772Z,101237.94
2022-12-04T21:19:39.154Z,101231.72
2022-12-04T21:22:06.540Z,101228.03
2022-12-04T21:24:38.379Z,101244.06
2022-12-04T21:27:10.978Z,101255.50
2022-12-04T21:29:39.655Z,101242.09
2022-12-04T21:32:07.253Z,101245.63
2022-12-04T21:34:34.944Z,101243.81
2022-12-04T21:37:02.262Z,101248.19
2022-12-04T21:39:29.740Z,101229.41
2022-12-04T21:42:15.669Z,101246.22
2022-12-04T21:44:42.973Z,101231.94
2022-12-04T21:47:10.304Z,101237.22
2022-12-04T21:49:37.578Z,101233.66
2022-12-04T21:52:05.098Z,101235.38
2022-12-04T21:54:32.520Z,101227.19
2022-12-04T21:56:59.904Z,101234.38
2022-12-04T21:59:27.277Z,101229.00
2022-12-04T22:01:54.725Z,101241.47
2022-12-04T22:04:22.403Z,101234.38
2022-12-04T22:06:50.164Z,101240.47
2022-12-04T22:09:18.228Z,101241.34
2022-12-04T22:11:45.827Z,101254.66
2022-12-04T22:14:14.094Z,101264.56
2022-12-04T22:16:43.483Z,101268.94
2022-12-04T22:19:12.448Z,101263.44
2022-12-04T22:21:40.342Z,101239.25
2022-12-04T22:24:08.038Z,101248.19
2022-12-04T22:26:35.333Z,101249.03
2022-12-04T22:29:26.746Z,101242.69
2022-12-04T22:31:50.768Z,101240.00
2022-12-04T22:34:18.114Z,101248.91
2022-12-04T22:36:45.444Z,101240.00
2022-12-04T22:39:12.783Z,101239.13
2022-12-04T22:41:40.005Z,101252.44
2022-12-04T22:44:07.431Z,101248.75
2022-12-04T22:46:35.763Z,101242.44
2022-12-04T22:49:03.155Z,101245.13
2022-12-04T22:51:30.689Z,101247.81
2022-12-04T22:53:58.520Z,101248.66
2022-12-04T22:56:28.324Z,101251.22
2022-12-04T22:58:57.706Z,101236.91
2022-12-04T23:01:28.022Z,101242.16
2022-12-04T23:03:55.842Z,101238.63
2022-12-04T23:06:26.924Z,101236.91
2022-12-04T23:08:56.434Z,101247.53
2022-12-04T23:11:25.070Z,101258.28
2022-12-04T23:13:55.384Z,101250.22
2022-12-04T23:16:24.229Z,101255.50
2022-12-04T23:18:51.660Z,101241.19
2022-12-04T23:21:20.662Z,101241.19
2022-12-04T23:23:49.083Z,101238.50
2022-12-04T23:26:19.383Z,101234.00
2022-12-04T23:28:47.458Z,101240.22
2022-12-04T23:31:15.421Z,101235.69
2022-12-04T23:33:42.687Z,101231.16
2022-12-04T23:36:11.757Z,101234.69
2022-12-04T23:38:40.977Z,101238.25
2022-12-04T23:41:24.619Z,101233.84
2022-12-04T23:43:53.345Z,101242.66
2022-12-04T23:46:32.345Z,101259.75
2022-12-04T23:49:00.811Z,101256.94
2022-12-04T23:51:29.067Z,101249.00
2022-12-04T23:53:56.511Z,101245.34
2022-12-04T23:56:26.252Z,101235.31
2022-12-04T23:58:55.659Z,101245.22
